createdAt,value
2023-04-13T00:00:46.953Z,72.23
2023-04-13T00:03:17.597Z,69.93
2023-04-13T00:05:47.656Z,72.20
2023-04-13T00:08:17.267Z,73.10
2023-04-13T00:10:46.268Z,73.43
2023-04-13T00:13:15.104Z,71.90
2023-04-13T00:15:44.231Z,74.80
2023-04-13T00:18:12.577Z,76.50
2023-04-13T00:20:43.609Z,74.63
2023-04-13T00:23:18.080Z,73.87
2023-04-13T00:25:46.211Z,74.03
2023-04-13T00:28:16.644Z,73.90
2023-04-13T00:30:44.844Z,74.37
2023-04-13T00:33:13.042Z,74.33
2023-04-13T00:35:43.665Z,76.03
2023-04-13T00:38:11.664Z,74.80
2023-04-13T00:40:39.745Z,76.50
2023-04-13T00:43:07.810Z,77.70
2023-04-13T00:45:39.198Z,77.10
2023-04-13T00:48:10.996Z,77.60
2023-04-13T00:50:40.586Z,77.80
2023-04-13T00:53:13.852Z,79.30
2023-04-13T00:55:43.217Z,76.23
2023-04-13T00:58:13.527Z,75.60
2023-04-13T01:00:43.590Z,77.30
2023-04-13T01:03:12.471Z,77.73
2023-04-13T01:05:50.643Z,77.80
2023-04-13T01:08:29.145Z,80.20
2023-04-13T01:11:06.057Z,79.47
2023-04-13T01:13:42.202Z,79.43
2023-04-13T01:16:19.386Z,81.80
2023-04-13T01:18:53.352Z,82.20
2023-04-13T01:21:27.880Z,79.20
2023-04-13T01:24:18.035Z,80.07
2023-04-13T01:27:06.679Z,77.93
2023-04-13T01:29:37.951Z,78.30
2023-04-13T01:32:07.579Z,80.97
2023-04-13T01:34:36.906Z,77.73
2023-04-13T01:37:08.968Z,78.40
2023-04-13T01:39:38.670Z,75.77
2023-04-13T01:42:32.866Z,76.77
2023-04-13T01:45:03.320Z,75.77
2023-04-13T01:47:32.154Z,77.17
2023-04-13T01:50:30.076Z,74.23
2023-04-13T01:53:15.587Z,75.33
2023-04-13T01:55:45.697Z,74.33
2023-04-13T01:58:15.828Z,72.53
2023-04-13T02:00:50.218Z,73.73
2023-04-13T02:03:18.404Z,71.70
2023-04-13T02:05:46.498Z,74.90
2023-04-13T02:08:15.757Z,71.10
2023-04-13T02:10:47.510Z,72.87
2023-04-13T02:13:15.701Z,70.20
2023-04-13T02:15:44.687Z,73.40
2023-04-13T02:18:14.641Z,73.13
2023-04-13T02:20:45.878Z,72.27
2023-04-13T02:23:15.844Z,72.47
2023-04-13T02:25:48.074Z,71.97
2023-04-13T02:28:18.009Z,73.50
2023-04-13T02:30:47.882Z,74.00
2023-04-13T02:33:17.267Z,69.60
2023-04-13T02:35:45.685Z,72.30
2023-04-13T02:38:15.709Z,71.13
2023-04-13T02:40:47.909Z,73.20
2023-04-13T02:43:16.124Z,72.77
2023-04-13T02:45:44.265Z,73.03
2023-04-13T02:48:17.072Z,75.47
2023-04-13T02:50:45.168Z,74.70
2023-04-13T02:53:19.430Z,77.47
2023-04-13T02:55:53.747Z,75.67
2023-04-13T02:58:23.482Z,75.83
2023-04-13T03:00:58.076Z,78.93
2023-04-13T03:03:27.594Z,78.47
2023-04-13T03:05:55.596Z,80.63
2023-04-13T03:08:31.654Z,79.10
2023-04-13T03:11:10.214Z,77.83
2023-04-13T03:13:43.376Z,77.57
2023-04-13T03:16:12.327Z,75.00
2023-04-13T03:18:42.564Z,77.93
2023-04-13T03:21:12.824Z,75.67
2023-04-13T03:23:48.377Z,75.93
2023-04-13T03:26:18.170Z,77.43
2023-04-13T03:28:47.285Z,74.80
2023-04-13T03:31:15.802Z,74.80
2023-04-13T03:33:45.315Z,75.73
2023-04-13T03:36:13.496Z,78.27
2023-04-13T03:38:42.255Z,76.30
2023-04-13T03:41:11.436Z,77.60
2023-04-13T03:43:39.958Z,74.00
2023-04-13T03:46:13.304Z,79.13
2023-04-13T03:48:42.125Z,76.50
2023-04-13T03:51:14.222Z,76.10
2023-04-13T03:54:00.992Z,76.80
2023-04-13T03:56:29.695Z,75.87
2023-04-13T03:58:58.321Z,74.97
2023-04-13T04:01:28.396Z,74.67
2023-04-13T04:03:58.213Z,72.70
2023-04-13T04:06:31.252Z,72.10
2023-04-13T04:09:13.230Z,70.57
2023-04-13T04:11:45.632Z,71.63
2023-04-13T04:14:16.017Z,71.97
2023-04-13T04:16:53.494Z,72.07
2023-04-13T04:19:21.756Z,71.30
2023-04-13T04:21:53.037Z,72.13
2023-04-13T04:24:23.001Z,74.90
2023-04-13T04:26:58.126Z,76.03
2023-04-13T04:29:34.016Z,78.37
2023-04-13T04:32:11.132Z,79.83
2023-04-13T04:34:41.117Z,77.77
2023-04-13T04:37:20.289Z,77.37
2023-04-13T04:40:00.275Z,77.87
2023-04-13T04:42:28.784Z,78.07
2023-04-13T04:44:58.692Z,80.27
2023-04-13T04:47:30.734Z,76.33
2023-04-13T04:50:17.932Z,81.40
2023-04-13T04:52:51.242Z,77.47
2023-04-13T04:55:23.001Z,76.70
2023-04-13T04:57:51.687Z,73.03
2023-04-13T05:00:22.355Z,74.30
2023-04-13T05:03:02.190Z,72.17
2023-04-13T05:05:30.789Z,71.53
2023-04-13T05:08:04.164Z,71.03
2023-04-13T05:10:32.653Z,68.47
2023-04-13T05:13:00.787Z,70.23
2023-04-13T05:15:28.994Z,70.77
2023-04-13T05:17:57.934Z,68.43
2023-04-13T05:20:28.882Z,67.43
2023-04-13T05:23:03.870Z,65.83
2023-04-13T05:25:34.436Z,62.77
2023-04-13T05:28:07.276Z,64.83
2023-04-13T05:30:35.385Z,64.47
2023-04-13T05:33:09.191Z,65.80
2023-04-13T05:35:40.123Z,64.57
2023-04-13T05:38:11.079Z,62.43
2023-04-13T05:40:39.424Z,60.20
2023-04-13T05:43:07.971Z,60.53
2023-04-13T05:45:41.642Z,62.27
2023-04-13T05:48:14.071Z,57.40
2023-04-13T05:50:44.349Z,57.37
2023-04-13T05:53:14.759Z,54.67
2023-04-13T05:55:48.409Z,51.57
2023-04-13T05:58:19.023Z,50.93
2023-04-13T06:00:49.654Z,47.47
2023-04-13T06:03:27.526Z,44.83
2023-04-13T06:05:55.895Z,45.63
2023-04-13T06:08:32.698Z,44.73
2023-04-13T06:11:01.722Z,43.20
2023-04-13T06:13:29.774Z,41.60
2023-04-13T06:15:58.472Z,41.53
2023-04-13T06:18:26.841Z,44.13
2023-04-13T06:20:55.747Z,41.77
2023-04-13T06:23:25.230Z,42.70
2023-04-13T06:25:57.157Z,40.53
2023-04-13T06:28:39.569Z,40.33
2023-04-13T06:31:09.172Z,40.27
2023-04-13T06:33:39.281Z,40.13
2023-04-13T06:36:08.341Z,40.37
2023-04-13T06:38:38.857Z,39.20
2023-04-13T06:41:10.905Z,40.13
2023-04-13T06:43:41.290Z,39.37
2023-04-13T06:46:28.568Z,38.70
2023-04-13T06:49:02.207Z,42.17
2023-04-13T06:51:33.047Z,37.93
2023-04-13T06:54:03.045Z,35.73
2023-04-13T06:56:31.317Z,33.43
2023-04-13T06:59:02.641Z,33.07
2023-04-13T07:01:32.947Z,31.80
2023-04-13T07:04:02.569Z,32.63
2023-04-13T07:06:32.592Z,32.57
2023-04-13T07:09:04.148Z,32.10
2023-04-13T07:11:33.150Z,31.33
2023-04-13T07:14:03.907Z,29.67
2023-04-13T07:16:32.231Z,31.00
2023-04-13T07:19:01.062Z,29.13
2023-04-13T07:21:31.997Z,31.27
2023-04-13T07:24:07.608Z,28.03
2023-04-13T07:26:37.888Z,25.90
2023-04-13T07:29:12.192Z,27.27
2023-04-13T07:31:41.521Z,24.23
2023-04-13T07:34:09.550Z,23.27
2023-04-13T07:36:43.844Z,24.10
2023-04-13T07:39:16.360Z,24.53
2023-04-13T07:41:48.499Z,24.40
2023-04-13T07:44:22.004Z,25.27
2023-04-13T07:46:50.296Z,24.27
2023-04-13T07:49:19.366Z,24.00
2023-04-13T07:51:48.227Z,22.47
2023-04-13T07:54:18.719Z,22.47
2023-04-13T07:56:49.177Z,21.13
2023-04-13T07:59:20.191Z,21.73
2023-04-13T08:01:49.262Z,20.00
2023-04-13T08:04:17.725Z,19.90
2023-04-13T08:06:47.178Z,18.83
2023-04-13T08:09:15.391Z,18.63
2023-04-13T08:11:44.925Z,19.05
2023-04-13T08:14:13.032Z,20.55
2023-04-13T08:16:42.124Z,17.75
2023-04-13T08:19:12.239Z,19.98
2023-04-13T08:21:46.620Z,17.95
2023-04-13T08:24:14.675Z,17.77
2023-04-13T08:26:45.638Z,17.75
2023-04-13T08:29:15.537Z,17.92
2023-04-13T08:31:43.716Z,16.90
2023-04-13T08:34:12.928Z,17.50
2023-04-13T08:36:41.160Z,20.25
2023-04-13T08:39:10.708Z,18.60
2023-04-13T08:41:45.383Z,17.00
2023-04-13T08:44:17.699Z,17.77
2023-04-13T08:46:51.242Z,17.10
2023-04-13T08:49:27.166Z,16.80
2023-04-13T08:52:15.093Z,17.92
2023-04-13T08:54:48.223Z,19.88
2023-04-13T08:57:25.148Z,22.88
2023-04-13T08:59:54.968Z,21.67
2023-04-13T09:02:26.488Z,23.33
2023-04-13T09:05:02.375Z,30.20
2023-04-13T09:07:34.857Z,22.08
2023-04-13T09:10:09.719Z,27.95
2023-04-13T09:12:37.777Z,28.30
2023-04-13T09:15:09.233Z,26.05
2023-04-13T09:17:45.873Z,24.27
2023-04-13T09:20:17.339Z,22.58
2023-04-13T09:22:45.854Z,25.90
2023-04-13T09:25:24.720Z,30.50
2023-04-13T09:27:53.200Z,21.58
2023-04-13T09:30:24.932Z,26.55
2023-04-13T09:33:05.349Z,22.95
2023-04-13T09:35:34.477Z,22.77
2023-04-13T09:38:02.900Z,27.92
2023-04-13T09:40:31.673Z,23.95
2023-04-13T09:43:02.343Z,25.48
2023-04-13T09:45:37.578Z,24.00
2023-04-13T09:48:07.906Z,24.67
2023-04-13T09:50:37.073Z,15.98
2023-04-13T09:53:06.291Z,16.42
2023-04-13T09:55:35.634Z,15.48
2023-04-13T09:58:13.779Z,13.93
2023-04-13T10:00:45.678Z,8.70
2023-04-13T10:03:15.068Z,6.50
2023-04-13T10:05:58.539Z,6.00
2023-04-13T10:11:01.456Z,7.60
2023-04-13T10:13:35.502Z,6.63
2023-04-13T10:16:32.842Z,9.75
2023-04-13T10:19:06.464Z,8.25
2023-04-13T10:21:39.628Z,8.55
2023-04-13T10:24:12.122Z,7.80
2023-04-13T10:26:42.023Z,6.85
2023-04-13T10:29:11.715Z,5.78
2023-04-13T10:31:47.782Z,5.93
2023-04-13T10:34:25.461Z,5.35
2023-04-13T10:36:56.072Z,4.70
2023-04-13T10:39:27.992Z,4.25
2023-04-13T10:42:03.858Z,4.10
2023-04-13T10:44:42.877Z,4.97
2023-04-13T10:47:12.710Z,4.75
2023-04-13T10:49:41.815Z,4.88
2023-04-13T10:52:11.778Z,4.90
2023-04-13T10:54:41.274Z,4.50
2023-04-13T10:57:11.301Z,4.47
2023-04-13T10:59:57.078Z,4.20
2023-04-13T11:02:32.351Z,4.25
2023-04-13T11:05:02.007Z,5.18
2023-04-13T11:07:30.183Z,4.88
2023-04-13T11:12:30.489Z,5.55
2023-04-13T11:14:58.558Z,5.47
2023-04-13T11:17:28.279Z,5.65
2023-04-13T11:19:57.947Z,7.35
2023-04-13T11:22:28.099Z,5.60
2023-04-13T11:25:09.080Z,4.85
2023-04-13T11:27:38.064Z,5.90
2023-04-13T11:30:09.678Z,5.95
2023-04-13T11:32:43.067Z,5.20
2023-04-13T11:35:14.092Z,5.75
2023-04-13T11:37:43.982Z,5.97
2023-04-13T11:40:15.133Z,6.57
2023-04-13T11:42:45.184Z,6.72
2023-04-13T11:45:15.915Z,6.88
2023-04-13T11:47:46.276Z,5.75
2023-04-13T11:50:16.661Z,6.15
2023-04-13T11:52:46.634Z,6.00
2023-04-13T11:55:23.386Z,5.25
2023-04-13T11:57:53.058Z,7.63
2023-04-13T12:00:26.210Z,6.28
2023-04-13T12:05:32.499Z,8.55
2023-04-13T12:08:04.385Z,6.13
2023-04-13T12:10:41.402Z,8.45
2023-04-13T12:13:33.550Z,5.97
2023-04-13T12:16:11.210Z,6.97
2023-04-13T12:18:47.434Z,7.65
2023-04-13T12:21:19.978Z,7.10
2023-04-13T12:23:55.736Z,7.18
2023-04-13T12:27:15.222Z,8.00
2023-04-13T12:29:13.988Z,7.07
2023-04-13T12:31:44.494Z,7.72
2023-04-13T12:34:13.973Z,11.05
2023-04-13T12:36:42.084Z,7.60
2023-04-13T12:39:10.315Z,7.80
2023-04-13T12:41:38.378Z,7.15
2023-04-13T12:44:06.711Z,7.20
2023-04-13T12:46:34.751Z,25.77
2023-04-13T12:49:03.388Z,12.40
2023-04-13T12:51:32.887Z,7.60
2023-04-13T12:54:00.936Z,9.18
2023-04-13T12:56:28.981Z,7.97
2023-04-13T12:58:57.095Z,6.68
2023-04-13T13:01:25.525Z,7.50
2023-04-13T13:03:53.700Z,6.78
2023-04-13T13:06:21.947Z,6.18
2023-04-13T13:08:51.708Z,6.65
2023-04-13T13:11:19.795Z,6.00
2023-04-13T13:13:47.809Z,5.90
2023-04-13T13:16:16.209Z,5.15
2023-04-13T13:18:50.413Z,6.40
2023-04-13T13:21:20.108Z,7.85
2023-04-13T13:23:48.225Z,7.25
2023-04-13T13:28:48.694Z,6.25
2023-04-13T13:31:16.780Z,6.35
2023-04-13T13:33:45.102Z,5.68
2023-04-13T13:36:14.463Z,6.10
2023-04-13T13:38:43.368Z,5.75
2023-04-13T13:41:11.728Z,5.95
2023-04-13T13:43:41.565Z,4.80
2023-04-13T13:46:09.627Z,5.57
2023-04-13T13:48:39.886Z,8.45
2023-04-13T13:51:39.946Z,4.78
2023-04-13T13:54:10.262Z,5.20
2023-04-13T13:56:38.452Z,5.43
2023-04-13T13:59:08.732Z,4.93
2023-04-13T14:01:37.905Z,5.88
2023-04-13T14:04:06.829Z,6.28
2023-04-13T14:06:34.922Z,5.28
2023-04-13T14:09:03.551Z,6.05
2023-04-13T14:11:31.968Z,5.47
2023-04-13T14:14:11.123Z,5.75
2023-04-13T14:16:48.124Z,5.53
2023-04-13T14:19:16.148Z,7.20
2023-04-13T14:21:44.218Z,6.47
2023-04-13T14:24:12.250Z,7.13
2023-04-13T14:26:41.759Z,5.82
2023-04-13T14:29:10.232Z,5.80
2023-04-13T14:31:38.394Z,5.00
2023-04-13T14:34:07.947Z,4.90
2023-04-13T14:36:35.954Z,5.35
2023-04-13T14:39:05.182Z,8.75
2023-04-13T14:41:33.332Z,8.20
2023-04-13T14:44:01.477Z,5.88
2023-04-13T14:46:29.494Z,5.95
2023-04-13T14:48:57.657Z,6.53
2023-04-13T14:51:27.433Z,9.25
2023-04-13T14:53:56.466Z,7.53
2023-04-13T14:56:26.243Z,5.57
2023-04-13T14:58:54.497Z,11.10
2023-04-13T15:01:24.384Z,5.60
2023-04-13T15:03:53.960Z,6.25
2023-04-13T15:06:22.605Z,5.68
2023-04-13T15:08:52.833Z,5.72
2023-04-13T15:11:20.877Z,6.38
2023-04-13T15:13:49.518Z,5.53
2023-04-13T15:16:17.580Z,6.55
2023-04-13T15:18:45.706Z,6.22
2023-04-13T15:21:13.740Z,6.32
2023-04-13T15:23:42.245Z,6.30
2023-04-13T15:26:17.289Z,6.60
2023-04-13T15:28:45.693Z,8.70
2023-04-13T15:31:14.053Z,7.93
2023-04-13T15:33:42.319Z,8.85
2023-04-13T15:36:14.765Z,7.80
2023-04-13T15:38:44.475Z,5.90
2023-04-13T15:41:14.151Z,6.05
2023-04-13T15:43:44.154Z,6.70
2023-04-13T15:46:12.497Z,6.07
2023-04-13T15:48:40.921Z,5.60
2023-04-13T15:51:09.417Z,6.50
2023-04-13T15:53:37.655Z,8.50
2023-04-13T15:56:09.020Z,6.63
2023-04-13T15:58:38.705Z,6.13
2023-04-13T16:01:09.125Z,6.88
2023-04-13T16:03:37.792Z,7.07
2023-04-13T16:06:06.858Z,7.55
2023-04-13T16:08:35.018Z,8.50
2023-04-13T16:11:03.137Z,7.78
2023-04-13T16:13:48.027Z,7.50
2023-04-13T16:16:18.887Z,8.15
2023-04-13T16:18:46.901Z,8.00
2023-04-13T16:21:19.260Z,8.20
2023-04-13T16:23:47.574Z,8.77
2023-04-13T16:26:15.768Z,8.75
2023-04-13T16:28:44.099Z,10.20
2023-04-13T16:31:12.316Z,13.52
2023-04-13T16:33:42.168Z,10.13
2023-04-13T16:36:11.117Z,11.82
2023-04-13T16:38:40.432Z,10.27
2023-04-13T16:41:08.556Z,10.77
2023-04-13T16:43:36.632Z,11.73
2023-04-13T16:46:05.746Z,11.38
2023-04-13T16:48:33.865Z,10.73
2023-04-13T16:51:04.699Z,11.55
2023-04-13T16:53:33.037Z,10.77
2023-04-13T16:56:01.101Z,11.25
2023-04-13T16:58:29.154Z,11.60
2023-04-13T17:00:57.543Z,12.38
2023-04-13T17:03:25.812Z,12.43
2023-04-13T17:05:55.067Z,12.53
2023-04-13T17:08:24.831Z,12.55
2023-04-13T17:10:53.357Z,12.73
2023-04-13T17:13:21.846Z,13.80
2023-04-13T17:15:50.010Z,13.67
2023-04-13T17:18:18.245Z,14.70
2023-04-13T17:20:54.332Z,15.73
2023-04-13T17:23:23.373Z,15.37
2023-04-13T17:25:56.376Z,16.63
2023-04-13T17:28:25.558Z,17.70
2023-04-13T17:30:54.050Z,17.00
2023-04-13T17:33:24.353Z,18.37
2023-04-13T17:35:54.291Z,20.43
2023-04-13T17:38:22.354Z,18.90
2023-04-13T17:40:51.114Z,21.30
2023-04-13T17:43:20.657Z,20.70
2023-04-13T17:45:48.759Z,22.57
2023-04-13T17:48:16.772Z,22.20
2023-04-13T17:50:44.890Z,25.03
2023-04-13T17:53:13.019Z,23.90
2023-04-13T17:55:41.066Z,24.57
2023-04-13T17:58:10.805Z,26.17
2023-04-13T18:00:40.268Z,26.50
2023-04-13T18:03:09.398Z,27.33
2023-04-13T18:05:37.744Z,27.37
2023-04-13T18:08:06.394Z,24.90
2023-04-13T18:10:34.489Z,18.57
2023-04-13T18:13:02.565Z,16.67
2023-04-13T18:15:30.752Z,16.90
2023-04-13T18:18:00.214Z,16.07
2023-04-13T18:20:28.454Z,14.90
2023-04-13T18:22:56.496Z,14.57
2023-04-13T18:25:24.574Z,14.80
2023-04-13T18:27:52.578Z,15.27
2023-04-13T18:30:21.062Z,14.70
2023-04-13T18:32:51.557Z,14.63
2023-04-13T18:35:21.480Z,14.40
2023-04-13T18:37:49.605Z,15.40
2023-04-13T18:40:17.721Z,16.43
2023-04-13T18:42:50.037Z,17.53
2023-04-13T18:45:18.388Z,17.60
2023-04-13T18:47:46.548Z,17.57
2023-04-13T18:50:14.753Z,19.10
2023-04-13T18:52:44.198Z,19.13
2023-04-13T18:55:12.328Z,19.47
2023-04-13T18:57:41.742Z,19.80
2023-04-13T19:00:11.730Z,20.60
2023-04-13T19:02:40.733Z,21.63
2023-04-13T19:05:12.222Z,22.23
2023-04-13T19:07:42.444Z,23.13
2023-04-13T19:10:12.437Z,24.30
2023-04-13T19:12:40.443Z,25.50
2023-04-13T19:15:09.276Z,26.57
2023-04-13T19:17:37.339Z,27.13
2023-04-13T19:20:10.032Z,30.13
2023-04-13T19:22:38.331Z,31.87
2023-04-13T19:25:14.081Z,32.67
2023-04-13T19:27:44.794Z,34.50
2023-04-13T19:30:14.252Z,33.70
2023-04-13T19:32:44.751Z,34.83
2023-04-13T19:35:13.748Z,36.27
2023-04-13T19:37:42.402Z,37.67
2023-04-13T19:40:13.633Z,37.53
2023-04-13T19:42:44.544Z,36.53
2023-04-13T19:45:14.149Z,35.93
2023-04-13T19:47:42.498Z,35.33
2023-04-13T19:50:12.568Z,35.53
2023-04-13T19:52:42.459Z,37.13
2023-04-13T19:55:11.297Z,38.33
2023-04-13T19:57:42.381Z,39.10
2023-04-13T20:00:20.810Z,40.63
2023-04-13T20:02:50.881Z,40.37
2023-04-13T20:05:20.944Z,41.07
2023-04-13T20:07:49.143Z,42.83
2023-04-13T20:10:17.421Z,41.57
2023-04-13T20:12:45.506Z,44.73
2023-04-13T20:15:15.235Z,43.90
2023-04-13T20:17:43.295Z,44.43
2023-04-13T20:20:12.110Z,47.63
2023-04-13T20:22:40.310Z,47.97
2023-04-13T20:25:11.539Z,48.97
2023-04-13T20:27:42.360Z,48.37
2023-04-13T20:30:11.960Z,49.83
2023-04-13T20:32:41.413Z,52.17
2023-04-13T20:35:10.479Z,54.23
2023-04-13T20:37:38.607Z,52.63
2023-04-13T20:40:10.877Z,53.30
2023-04-13T20:42:41.908Z,50.63
2023-04-13T20:45:12.594Z,50.43
2023-04-13T20:47:42.634Z,50.87
2023-04-13T20:50:12.071Z,51.60
2023-04-13T20:52:42.068Z,51.43
2023-04-13T20:55:12.042Z,50.63
2023-04-13T20:57:42.176Z,49.60
2023-04-13T21:00:15.552Z,49.80
2023-04-13T21:02:46.832Z,49.20
2023-04-13T21:05:15.103Z,46.13
2023-04-13T21:07:46.141Z,46.40
2023-04-13T21:10:15.628Z,44.93
2023-04-13T21:12:43.721Z,44.17
2023-04-13T21:15:12.578Z,44.90
2023-04-13T21:17:40.722Z,45.17
2023-04-13T21:20:12.765Z,47.30
2023-04-13T21:22:40.748Z,45.93
2023-04-13T21:25:09.163Z,48.20
2023-04-13T21:27:37.339Z,50.07
2023-04-13T21:30:06.535Z,47.87
2023-04-13T21:32:34.610Z,48.07
2023-04-13T21:35:02.720Z,47.33
2023-04-13T21:37:32.076Z,49.93
2023-04-13T21:40:00.826Z,50.50
2023-04-13T21:42:28.910Z,50.77
2023-04-13T21:44:57.421Z,51.07
2023-04-13T21:47:25.433Z,51.27
2023-04-13T21:49:53.560Z,54.47
2023-04-13T21:52:21.695Z,55.33
2023-04-13T21:54:51.800Z,55.47
2023-04-13T21:57:19.880Z,54.60
2023-04-13T21:59:47.928Z,54.43
2023-04-13T22:02:16.022Z,55.23
2023-04-13T22:04:44.135Z,53.57
2023-04-13T22:07:12.240Z,56.10
2023-04-13T22:09:40.541Z,55.63
2023-04-13T22:12:11.129Z,56.00
2023-04-13T22:14:39.247Z,57.30
2023-04-13T22:17:07.277Z,57.00
2023-04-13T22:19:35.272Z,57.30
2023-04-13T22:22:03.237Z,57.77
2023-04-13T22:24:31.286Z,58.03
2023-04-13T22:26:59.266Z,59.80
2023-04-13T22:29:28.599Z,59.67
2023-04-13T22:31:56.748Z,61.17
2023-04-13T22:34:27.144Z,60.70
2023-04-13T22:36:55.295Z,63.37
2023-04-13T22:39:23.336Z,63.23
2023-04-13T22:41:51.361Z,63.87
2023-04-13T22:44:19.393Z,62.77
2023-04-13T22:46:48.811Z,61.87
2023-04-13T22:49:16.870Z,62.70
2023-04-13T22:51:45.007Z,62.97
2023-04-13T22:54:13.163Z,64.17
2023-04-13T22:56:41.253Z,64.57
2023-04-13T22:59:09.253Z,63.90
2023-04-13T23:01:37.341Z,66.57
2023-04-13T23:04:06.983Z,66.30
2023-04-13T23:06:36.091Z,67.13
2023-04-13T23:09:04.366Z,63.87
2023-04-13T23:11:32.367Z,65.33
2023-04-13T23:14:00.685Z,67.20
2023-04-13T23:16:28.869Z,70.90
2023-04-13T23:18:57.193Z,71.73
2023-04-13T23:21:27.771Z,70.60
2023-04-13T23:23:55.842Z,73.47
2023-04-13T23:26:23.917Z,74.67
2023-04-13T23:28:52.003Z,76.60
2023-04-13T23:31:20.280Z,74.73
2023-04-13T23:33:48.389Z,74.67
2023-04-13T23:36:16.468Z,76.07
2023-04-13T23:38:46.097Z,76.23
2023-04-13T23:41:14.100Z,77.13
2023-04-13T23:43:42.072Z,74.07
2023-04-13T23:46:10.124Z,74.43
2023-04-13T23:48:38.209Z,74.80
2023-04-13T23:51:06.362Z,76.70
2023-04-13T23:53:34.339Z,76.07
2023-04-13T23:56:03.782Z,75.33
2023-04-13T23:58:31.795Z,73.77
